createdAt,value
2022-10-17T00:02:17.628Z,101710.66
2022-10-17T00:05:03.494Z,101697.22
2022-10-17T00:07:49.193Z,101697.66
2022-10-17T00:10:34.913Z,101682.13
2022-10-17T00:13:20.113Z,101674.13
2022-10-17T00:16:06.501Z,101657.03
2022-10-17T00:18:52.250Z,101673.69
2022-10-17T00:21:37.842Z,101667.88
2022-10-17T00:24:23.009Z,101672.97
2022-10-17T00:27:08.894Z,101676.97
2022-10-17T00:29:54.281Z,101664.06
2022-10-17T00:32:40.315Z,101661.75
2022-10-17T00:35:25.933Z,101659.81
2022-10-17T00:38:11.380Z,101664.97
2022-10-17T00:40:57.079Z,101658.66
2022-10-17T00:44:03.159Z,101657.06
2022-10-17T00:46:48.707Z,101656.59
2022-10-17T00:49:36.349Z,101654.31
2022-10-17T00:52:26.461Z,101661.34
2022-10-17T00:55:23.067Z,101657.22
2022-10-17T00:58:08.657Z,101654.50
2022-10-17T01:00:53.897Z,101653.59
2022-10-17T01:03:39.312Z,101663.91
2022-10-17T01:06:24.612Z,101657.56
2022-10-17T01:09:10.173Z,101660.16
2022-10-17T01:12:26.760Z,101658.50
2022-10-17T01:15:35.383Z,101658.31
2022-10-17T01:18:38.541Z,101662.72
2022-10-17T01:21:39.028Z,101644.97
2022-10-17T01:24:41.589Z,101653.94
2022-10-17T01:27:43.207Z,101650.94
2022-10-17T01:30:46.640Z,101664.78
2022-10-17T01:34:06.078Z,101674.56
2022-10-17T01:37:00.424Z,101661.09
2022-10-17T01:39:51.905Z,101652.31
2022-10-17T01:42:45.107Z,101642.13
2022-10-17T01:45:40.630Z,101645.91
2022-10-17T01:48:34.253Z,101641.28
2022-10-17T01:51:27.504Z,101646.81
2022-10-17T01:54:26.192Z,101649.63
2022-10-17T01:57:20.258Z,101637.28
2022-10-17T02:00:11.100Z,101624.44
2022-10-17T02:03:04.595Z,101631.72
2022-10-17T02:05:50.135Z,101635.44
2022-10-17T02:08:44.902Z,101618.06
2022-10-17T02:11:30.375Z,101625.97
2022-10-17T02:14:32.752Z,101627.31
2022-10-17T02:17:49.080Z,101645.47
2022-10-17T02:20:52.930Z,101648.69
2022-10-17T02:23:53.591Z,101634.63
2022-10-17T02:27:06.691Z,101642.81
2022-10-17T02:29:58.931Z,101631.19
2022-10-17T02:32:55.538Z,101632.34
2022-10-17T02:35:47.069Z,101632.19
2022-10-17T02:38:34.571Z,101634.28
2022-10-17T02:41:23.702Z,101632.53
2022-10-17T02:44:10.116Z,101625.94
2022-10-17T02:47:03.406Z,101620.00
2022-10-17T02:49:54.781Z,101626.25
2022-10-17T02:52:51.002Z,101634.28
2022-10-17T02:55:43.781Z,101634.78
2022-10-17T02:58:33.434Z,101631.81
2022-10-17T03:01:19.896Z,101633.06
2022-10-17T03:04:10.945Z,101621.56
2022-10-17T03:06:56.546Z,101624.78
2022-10-17T03:09:42.285Z,101619.66
2022-10-17T03:12:28.097Z,101618.31
2022-10-17T03:15:14.164Z,101615.38
2022-10-17T03:17:59.704Z,101614.50
2022-10-17T03:20:44.990Z,101613.44
2022-10-17T03:23:30.653Z,101611.03
2022-10-17T03:26:16.399Z,101607.00
2022-10-17T03:29:02.089Z,101605.34
2022-10-17T03:31:47.943Z,101606.84
2022-10-17T03:34:33.453Z,101600.22
2022-10-17T03:37:18.953Z,101607.16
2022-10-17T03:40:04.705Z,101604.19
2022-10-17T03:42:50.889Z,101595.47
2022-10-17T03:45:36.853Z,101601.63
2022-10-17T03:48:22.539Z,101605.59
2022-10-17T03:51:09.788Z,101611.06
2022-10-17T03:53:55.096Z,101604.44
2022-10-17T03:56:40.421Z,101610.69
2022-10-17T03:59:26.147Z,101606.38
2022-10-17T04:02:11.683Z,101608.09
2022-10-17T04:04:57.015Z,101605.63
2022-10-17T04:07:42.469Z,101606.94
2022-10-17T04:10:27.798Z,101597.25
2022-10-17T04:13:13.993Z,101599.50
2022-10-17T04:16:01.483Z,101601.94
2022-10-17T04:18:47.114Z,101599.34
2022-10-17T04:21:32.720Z,101592.38
2022-10-17T04:24:18.111Z,101603.34
2022-10-17T04:27:03.796Z,101601.63
2022-10-17T04:29:49.500Z,101595.72
2022-10-17T04:32:38.910Z,101597.72
2022-10-17T04:35:24.323Z,101601.94
2022-10-17T04:38:09.921Z,101598.22
2022-10-17T04:41:02.977Z,101600.06
2022-10-17T04:43:51.022Z,101598.38
2022-10-17T04:46:37.259Z,101588.38
2022-10-17T04:49:22.860Z,101584.09
2022-10-17T04:52:08.128Z,101592.16
2022-10-17T04:54:53.979Z,101588.53
2022-10-17T04:57:39.588Z,101600.75
2022-10-17T05:00:24.870Z,101588.13
2022-10-17T05:03:10.639Z,101592.66
2022-10-17T05:05:55.817Z,101597.47
2022-10-17T05:08:41.529Z,101602.41
2022-10-17T05:11:29.210Z,101582.00
2022-10-17T05:14:15.352Z,101600.03
2022-10-17T05:17:01.036Z,101598.19
2022-10-17T05:19:46.552Z,101601.91
2022-10-17T05:22:32.183Z,101597.13
2022-10-17T05:25:17.954Z,101602.41
2022-10-17T05:28:03.312Z,101604.34
2022-10-17T05:30:49.341Z,101590.09
2022-10-17T05:33:34.998Z,101594.09
2022-10-17T05:36:20.936Z,101573.59
2022-10-17T05:39:06.527Z,101578.25
2022-10-17T05:41:52.638Z,101587.91
2022-10-17T05:44:39.570Z,101588.97
2022-10-17T05:47:24.896Z,101579.91
2022-10-17T05:50:10.215Z,101579.31
2022-10-17T05:52:55.775Z,101585.44
2022-10-17T05:55:41.295Z,101587.06
2022-10-17T06:01:33.706Z,101592.91
2022-10-17T06:04:19.647Z,101597.41
2022-10-17T06:07:05.639Z,101586.81
2022-10-17T06:09:51.237Z,101599.25
2022-10-17T06:12:36.603Z,101602.84
2022-10-17T06:15:21.902Z,101599.59
2022-10-17T06:18:07.684Z,101604.94
2022-10-17T06:20:53.614Z,101602.25
2022-10-17T06:23:39.082Z,101588.53
2022-10-17T06:26:24.531Z,101599.31
2022-10-17T06:29:10.658Z,101607.84
2022-10-17T06:31:55.984Z,101615.44
2022-10-17T06:34:41.417Z,101618.31
2022-10-17T06:37:35.329Z,101631.06
2022-10-17T06:40:22.410Z,101630.44
2022-10-17T06:43:07.826Z,101634.44
2022-10-17T06:45:53.101Z,101631.41
2022-10-17T06:48:38.594Z,101628.47
2022-10-17T06:51:23.907Z,101616.22
2022-10-17T06:54:09.386Z,101619.19
2022-10-17T06:56:56.105Z,101634.66
2022-10-17T06:59:41.838Z,101638.97
2022-10-17T07:02:27.884Z,101638.28
2022-10-17T07:05:13.483Z,101634.41
2022-10-17T07:07:58.890Z,101640.56
2022-10-17T07:10:44.441Z,101627.38
2022-10-17T07:13:29.860Z,101619.34
2022-10-17T07:16:16.176Z,101620.03
2022-10-17T07:19:01.969Z,101624.63
2022-10-17T07:21:48.928Z,101614.03
2022-10-17T07:24:34.337Z,101625.34
2022-10-17T07:27:19.567Z,101616.19
2022-10-17T07:30:05.809Z,101620.06
2022-10-17T07:32:54.504Z,101625.59
2022-10-17T07:35:42.611Z,101622.34
2022-10-17T07:38:28.658Z,101619.94
2022-10-17T07:41:17.885Z,101623.63
2022-10-17T07:44:06.299Z,101627.06
2022-10-17T07:46:51.748Z,101613.31
2022-10-17T07:49:42.421Z,101605.22
2022-10-17T07:52:28.423Z,101612.41
2022-10-17T07:55:14.071Z,101609.63
2022-10-17T07:58:00.480Z,101627.09
2022-10-17T08:00:48.438Z,101620.91
2022-10-17T08:03:34.737Z,101624.44
2022-10-17T08:06:20.148Z,101621.00
2022-10-17T08:09:05.827Z,101617.47
2022-10-17T08:11:51.073Z,101639.28
2022-10-17T08:14:36.659Z,101624.34
2022-10-17T08:17:21.960Z,101626.34
2022-10-17T08:20:07.872Z,101620.22
2022-10-17T08:22:55.040Z,101629.84
2022-10-17T08:25:40.379Z,101614.88
2022-10-17T08:28:25.938Z,101629.75
2022-10-17T08:31:21.291Z,101613.97
2022-10-17T08:34:07.234Z,101622.78
2022-10-17T08:36:52.788Z,101618.09
2022-10-17T08:39:38.372Z,101613.56
2022-10-17T08:42:42.076Z,101608.03
2022-10-17T08:45:38.513Z,101606.31
2022-10-17T08:48:26.555Z,101597.34
2022-10-17T08:51:35.592Z,101606.50
2022-10-17T08:54:46.149Z,101593.41
2022-10-17T08:57:32.199Z,101592.00
2022-10-17T09:00:20.922Z,101589.97
2022-10-17T09:03:15.213Z,101586.91
2022-10-17T09:06:12.832Z,101588.72
2022-10-17T09:09:06.179Z,101579.69
2022-10-17T09:12:02.815Z,101566.34
2022-10-17T09:15:16.385Z,101583.56
2022-10-17T09:18:22.412Z,101586.44
2022-10-17T09:21:19.376Z,101586.59
2022-10-17T09:24:15.901Z,101573.19
2022-10-17T09:27:02.897Z,101582.44
2022-10-17T09:29:50.487Z,101586.91
2022-10-17T09:32:37.548Z,101582.97
2022-10-17T09:35:25.401Z,101576.88
2022-10-17T09:38:18.038Z,101579.31
2022-10-17T09:41:15.741Z,101579.63
2022-10-17T09:44:21.890Z,101578.97
2022-10-17T09:47:31.179Z,101585.00
2022-10-17T09:50:27.445Z,101587.06
2022-10-17T09:53:20.625Z,101591.91
2022-10-17T09:56:13.842Z,101580.22
2022-10-17T09:58:59.736Z,101582.50
2022-10-17T10:01:45.359Z,101585.41
2022-10-17T10:04:41.203Z,101583.13
2022-10-17T10:07:36.513Z,101582.44
2022-10-17T10:10:28.143Z,101587.66
2022-10-17T10:13:13.498Z,101586.63
2022-10-17T10:16:16.684Z,101578.19
2022-10-17T10:19:19.408Z,101573.09
2022-10-17T10:22:16.363Z,101585.28
2022-10-17T10:25:16.104Z,101592.75
2022-10-17T10:28:01.865Z,101573.47
2022-10-17T10:30:49.488Z,101595.75
2022-10-17T10:33:41.773Z,101597.44
2022-10-17T10:36:45.471Z,101578.28
2022-10-17T10:39:45.955Z,101594.38
2022-10-17T10:42:37.644Z,101580.56
2022-10-17T10:45:47.487Z,101575.56
2022-10-17T10:48:37.344Z,101586.63
2022-10-17T10:51:32.346Z,101592.00
2022-10-17T10:54:26.307Z,101585.13
2022-10-17T10:57:20.829Z,101587.50
2022-10-17T11:00:15.409Z,101589.69
2022-10-17T11:03:15.662Z,101587.97
2022-10-17T11:06:06.507Z,101588.69
2022-10-17T11:09:28.845Z,101585.31
2022-10-17T11:12:35.265Z,101588.00
2022-10-17T11:15:42.960Z,101585.88
2022-10-17T11:18:42.953Z,101589.97
2022-10-17T11:24:49.117Z,101582.63
2022-10-17T11:27:34.509Z,101578.63
2022-10-17T11:30:23.333Z,101590.03
2022-10-17T11:33:16.610Z,101587.78
2022-10-17T11:36:05.672Z,101584.50
2022-10-17T11:38:55.644Z,101583.81
2022-10-17T11:41:58.952Z,101593.56
2022-10-17T11:44:52.324Z,101592.22
2022-10-17T11:47:54.435Z,101593.78
2022-10-17T11:54:06.521Z,101594.53
2022-10-17T11:57:22.046Z,101594.66
2022-10-17T12:00:26.980Z,101584.34
2022-10-17T12:03:54.062Z,101588.47
2022-10-17T12:07:22.146Z,101578.38
2022-10-17T12:10:28.724Z,101567.50
2022-10-17T12:13:29.147Z,101573.25
2022-10-17T12:16:38.045Z,101569.13
2022-10-17T12:19:26.410Z,101564.97
2022-10-17T12:22:21.391Z,101568.81
2022-10-17T12:25:19.196Z,101568.00
2022-10-17T12:28:07.352Z,101573.16
2022-10-17T12:31:29.570Z,101591.56
2022-10-17T12:34:22.338Z,101594.50
2022-10-17T12:37:11.329Z,101594.38
2022-10-17T12:39:57.150Z,101589.56
2022-10-17T12:42:50.618Z,101588.88
2022-10-17T12:45:54.059Z,101586.41
2022-10-17T12:48:39.517Z,101597.41
2022-10-17T12:51:40.509Z,101578.56
2022-10-17T12:54:26.082Z,101592.81
2022-10-17T12:57:33.218Z,101607.97
2022-10-17T13:00:34.811Z,101600.00
2022-10-17T13:03:41.148Z,101618.44
2022-10-17T13:06:29.989Z,101615.41
2022-10-17T13:09:51.848Z,101618.16
2022-10-17T13:12:41.175Z,101623.84
2022-10-17T13:15:27.855Z,101628.09
2022-10-17T13:18:20.185Z,101635.84
2022-10-17T13:21:15.231Z,101623.81
2022-10-17T13:24:01.065Z,101630.34
2022-10-17T13:26:46.441Z,101615.00
2022-10-17T13:29:32.951Z,101638.25
2022-10-17T13:32:18.463Z,101640.00
2022-10-17T13:35:13.152Z,101637.91
2022-10-17T13:38:00.697Z,101643.22
2022-10-17T13:40:50.463Z,101658.53
2022-10-17T13:43:36.488Z,101658.53
2022-10-17T13:46:39.161Z,101663.88
2022-10-17T13:49:34.205Z,101664.09
2022-10-17T13:52:22.001Z,101674.44
2022-10-17T13:55:17.476Z,101681.47
2022-10-17T13:58:16.436Z,101685.63
2022-10-17T14:01:02.261Z,101684.16
2022-10-17T14:03:51.794Z,101680.50
2022-10-17T14:06:47.984Z,101696.47
2022-10-17T14:09:36.987Z,101692.97
2022-10-17T14:12:22.803Z,101687.19
2022-10-17T14:15:14.330Z,101697.28
2022-10-17T14:18:07.926Z,101678.63
2022-10-17T14:24:32.910Z,101681.97
2022-10-17T14:27:41.689Z,101678.44
2022-10-17T14:30:51.810Z,101675.25
2022-10-17T14:33:33.866Z,101686.53
2022-10-17T14:36:30.911Z,101696.34
2022-10-17T14:39:22.489Z,101687.38
2022-10-17T14:42:18.586Z,101694.16
2022-10-17T14:45:07.961Z,101692.59
2022-10-17T14:47:56.327Z,101696.00
2022-10-17T14:50:43.472Z,101712.50
2022-10-17T14:53:30.159Z,101697.28
2022-10-17T14:56:24.705Z,101711.41
2022-10-17T14:59:13.766Z,101722.50
2022-10-17T15:02:03.755Z,101716.44
2022-10-17T15:04:49.108Z,101727.38
2022-10-17T15:07:34.857Z,101736.22
2022-10-17T15:10:34.753Z,101733.72
2022-10-17T15:13:29.508Z,101740.25
2022-10-17T15:16:35.667Z,101750.34
2022-10-17T15:19:21.026Z,101742.72
2022-10-17T15:22:06.427Z,101746.38
2022-10-17T15:24:51.811Z,101749.38
2022-10-17T15:27:37.512Z,101756.91
2022-10-17T15:30:28.427Z,101753.44
2022-10-17T15:33:13.655Z,101746.69
2022-10-17T15:35:59.325Z,101772.28
2022-10-17T15:38:44.751Z,101760.06
2022-10-17T15:41:32.315Z,101765.19
2022-10-17T15:44:17.991Z,101773.50
2022-10-17T15:47:03.773Z,101765.47
2022-10-17T15:49:49.353Z,101747.91
2022-10-17T15:52:35.428Z,101760.28
2022-10-17T15:55:21.035Z,101754.44
2022-10-17T15:58:06.544Z,101768.09
2022-10-17T16:00:52.171Z,101772.47
2022-10-17T16:03:37.589Z,101776.63
2022-10-17T16:06:23.947Z,101790.47
2022-10-17T16:09:09.641Z,101788.66
2022-10-17T16:11:55.738Z,101795.13
2022-10-17T16:14:41.172Z,101798.03
2022-10-17T16:17:26.620Z,101799.72
2022-10-17T16:20:13.230Z,101803.09
2022-10-17T16:23:02.216Z,101800.03
2022-10-17T16:25:47.851Z,101808.22
2022-10-17T16:28:34.061Z,101808.22
2022-10-17T16:31:26.077Z,101818.38
2022-10-17T16:34:14.498Z,101823.09
2022-10-17T16:37:00.129Z,101813.06
2022-10-17T16:39:49.067Z,101814.16
2022-10-17T16:42:34.811Z,101801.19
2022-10-17T16:45:22.680Z,101822.34
2022-10-17T16:48:09.236Z,101824.38
2022-10-17T16:50:54.838Z,101844.84
2022-10-17T16:53:43.722Z,101833.03
2022-10-17T16:56:32.773Z,101833.44
2022-10-17T16:59:18.103Z,101848.09
2022-10-17T17:02:03.859Z,101850.44
2022-10-17T17:04:49.268Z,101842.97
2022-10-17T17:07:34.861Z,101858.38
2022-10-17T17:10:20.555Z,101854.03
2022-10-17T17:13:05.934Z,101856.91
2022-10-17T17:15:53.646Z,101873.50
2022-10-17T17:18:39.386Z,101864.13
2022-10-17T17:21:26.972Z,101875.53
2022-10-17T17:24:12.512Z,101876.28
2022-10-17T17:26:58.095Z,101881.59
2022-10-17T17:29:43.601Z,101874.78
2022-10-17T17:32:28.832Z,101874.97
2022-10-17T17:35:14.632Z,101891.50
2022-10-17T17:38:02.864Z,101888.19
2022-10-17T17:40:50.694Z,101894.25
2022-10-17T17:43:36.780Z,101903.75
2022-10-17T17:46:23.941Z,101898.13
2022-10-17T17:49:11.247Z,101887.44
2022-10-17T17:51:56.522Z,101894.25
2022-10-17T17:54:42.349Z,101897.66
2022-10-17T17:57:29.383Z,101906.28
2022-10-17T18:00:14.841Z,101908.69
2022-10-17T18:03:00.605Z,101925.66
2022-10-17T18:05:45.988Z,101920.34
2022-10-17T18:08:31.597Z,101922.63
2022-10-17T18:11:19.705Z,101930.09
2022-10-17T18:14:11.203Z,101917.47
2022-10-17T18:16:56.692Z,101928.38
2022-10-17T18:19:42.339Z,101917.09
2022-10-17T18:22:28.122Z,101924.31
2022-10-17T18:25:14.071Z,101928.13
2022-10-17T18:27:59.352Z,101915.78
2022-10-17T18:30:44.877Z,101933.81
2022-10-17T18:33:30.273Z,101912.66
2022-10-17T18:36:15.794Z,101927.66
2022-10-17T18:39:02.032Z,101936.03
2022-10-17T18:41:47.608Z,101927.38
2022-10-17T18:44:33.088Z,101921.97
2022-10-17T18:47:18.740Z,101934.03
2022-10-17T18:50:04.225Z,101935.44
2022-10-17T18:52:50.410Z,101941.78
2022-10-17T18:55:39.377Z,101941.03
2022-10-17T18:58:24.737Z,101942.16
2022-10-17T19:01:15.471Z,101950.72
2022-10-17T19:04:01.485Z,101952.72
2022-10-17T19:06:47.188Z,101943.13
2022-10-17T19:09:32.921Z,101967.06
2022-10-17T19:12:18.635Z,101968.47
2022-10-17T19:15:04.081Z,101953.50
2022-10-17T19:17:49.656Z,101966.78
2022-10-17T19:20:35.117Z,101959.84
2022-10-17T19:23:20.872Z,101974.75
2022-10-17T19:26:11.529Z,101970.75
2022-10-17T19:28:56.994Z,101960.78
2022-10-17T19:31:43.584Z,101966.78
2022-10-17T19:34:29.009Z,101968.56
2022-10-17T19:37:14.312Z,101973.88
2022-10-17T19:39:59.691Z,101970.25
2022-10-17T19:42:44.979Z,101976.53
2022-10-17T19:45:30.649Z,101970.94
2022-10-17T19:48:16.092Z,101975.13
2022-10-17T19:51:02.128Z,101970.47
2022-10-17T19:53:47.606Z,101967.59
2022-10-17T19:56:37.542Z,101977.09
2022-10-17T19:59:26.152Z,101975.59
2022-10-17T20:02:13.426Z,101957.47
2022-10-17T20:05:13.971Z,101955.47
2022-10-17T20:08:03.511Z,101967.72
2022-10-17T20:10:48.955Z,101989.06
2022-10-17T20:13:36.396Z,102001.59
2022-10-17T20:16:24.623Z,102004.00
2022-10-17T20:19:12.906Z,102006.25
2022-10-17T20:21:58.252Z,102005.13
2022-10-17T20:24:43.676Z,102017.28
2022-10-17T20:27:28.960Z,102018.69
2022-10-17T20:30:14.445Z,102024.13
2022-10-17T20:32:59.800Z,102012.31
2022-10-17T20:38:30.450Z,102037.13
2022-10-17T20:41:15.825Z,102034.47
2022-10-17T20:44:01.426Z,102042.13
2022-10-17T20:47:01.088Z,102058.03
2022-10-17T20:49:47.743Z,102052.06
2022-10-17T20:52:32.993Z,102053.22
2022-10-17T20:55:18.526Z,102062.84
2022-10-17T20:58:04.104Z,102078.31
2022-10-17T21:00:49.388Z,102080.63
2022-10-17T21:03:37.894Z,102077.06
2022-10-17T21:06:25.380Z,102084.13
2022-10-17T21:09:10.641Z,102079.94
2022-10-17T21:11:56.691Z,102084.06
2022-10-17T21:14:42.428Z,102073.44
2022-10-17T21:17:28.012Z,102087.66
2022-10-17T21:20:13.660Z,102094.59
2022-10-17T21:23:00.517Z,102091.50
2022-10-17T21:25:46.272Z,102088.06
2022-10-17T21:28:32.294Z,102085.50
2022-10-17T21:31:23.468Z,102096.91
2022-10-17T21:34:13.813Z,102089.66
2022-10-17T21:36:59.287Z,102092.41
2022-10-17T21:39:45.186Z,102102.16
2022-10-17T21:42:30.919Z,102103.25
2022-10-17T21:45:25.242Z,102092.88
2022-10-17T21:48:13.120Z,102095.63
2022-10-17T21:51:01.053Z,102102.13
2022-10-17T21:53:46.968Z,102104.00
2022-10-17T21:56:34.634Z,102113.19
2022-10-17T21:59:20.189Z,102113.16
2022-10-17T22:02:05.481Z,102102.63
2022-10-17T22:04:51.140Z,102094.69
2022-10-17T22:07:36.401Z,102112.53
2022-10-17T22:10:22.057Z,102116.34
2022-10-17T22:13:07.577Z,102115.56
2022-10-17T22:15:52.869Z,102107.16
2022-10-17T22:18:39.096Z,102126.34
2022-10-17T22:21:25.116Z,102108.72
2022-10-17T22:24:12.515Z,102126.78
2022-10-17T22:26:58.073Z,102115.59
2022-10-17T22:29:43.407Z,102114.50
2022-10-17T22:32:29.107Z,102110.59
2022-10-17T22:35:14.765Z,102105.63
2022-10-17T22:38:00.008Z,102124.72
2022-10-17T22:40:46.153Z,102128.63
2022-10-17T22:43:32.365Z,102128.66
2022-10-17T22:46:17.578Z,102121.16
2022-10-17T22:49:03.353Z,102138.41
2022-10-17T22:51:48.832Z,102138.41
2022-10-17T22:54:34.291Z,102134.44
2022-10-17T22:57:19.712Z,102120.34
2022-10-17T23:00:07.350Z,102124.50
2022-10-17T23:02:55.678Z,102124.31
2022-10-17T23:05:41.232Z,102127.75
2022-10-17T23:08:28.078Z,102127.22
2022-10-17T23:11:13.568Z,102129.00
2022-10-17T23:13:58.985Z,102130.47
2022-10-17T23:16:44.582Z,102133.66
2022-10-17T23:19:30.754Z,102140.13
2022-10-17T23:22:16.039Z,102141.00
2022-10-17T23:25:01.505Z,102137.25
2022-10-17T23:27:47.154Z,102144.34
2022-10-17T23:30:32.566Z,102142.63
2022-10-17T23:33:17.922Z,102146.75
2022-10-17T23:36:05.382Z,102159.22
2022-10-17T23:38:52.752Z,102144.34
2022-10-17T23:41:40.836Z,102137.53
2022-10-17T23:44:26.175Z,102155.41
2022-10-17T23:47:11.425Z,102151.88
2022-10-17T23:49:57.567Z,102149.72
2022-10-17T23:52:43.406Z,102152.84
2022-10-17T23:55:29.194Z,102150.63
2022-10-17T23:58:14.761Z,102141.84
